sensor_id;sensor_type;location;lat;lon;timestamp;temperature;humidity
41987;DHT22;28361;50.740;7.084;2023-06-19T00:02:09;22.20;61.30
41987;DHT22;28361;50.740;7.084;2023-06-19T00:04:34;22.30;61.40
41987;DHT22;28361;50.740;7.084;2023-06-19T00:07:00;22.20;63.10
41987;DHT22;28361;50.740;7.084;2023-06-19T00:09:26;22.20;63.80
41987;DHT22;28361;50.740;7.084;2023-06-19T00:11:52;22.20;69.90
41987;DHT22;28361;50.740;7.084;2023-06-19T00:14:18;22.20;71.50
41987;DHT22;28361;50.740;7.084;2023-06-19T00:16:44;22.20;69.00
41987;DHT22;28361;50.740;7.084;2023-06-19T00:19:10;22.20;76.30
41987;DHT22;28361;50.740;7.084;2023-06-19T00:21:37;22.20;75.10
41987;DHT22;28361;50.740;7.084;2023-06-19T00:24:04;22.20;76.70
41987;DHT22;28361;50.740;7.084;2023-06-19T00:26:30;22.10;81.50
41987;DHT22;28361;50.740;7.084;2023-06-19T00:28:56;22.10;78.90
41987;DHT22;28361;50.740;7.084;2023-06-19T00:31:22;22.10;81.60
41987;DHT22;28361;50.740;7.084;2023-06-19T00:33:47;22.00;82.40
41987;DHT22;28361;50.740;7.084;2023-06-19T00:36:15;22.10;83.80
41987;DHT22;28361;50.740;7.084;2023-06-19T00:38:42;22.00;81.30
41987;DHT22;28361;50.740;7.084;2023-06-19T00:41:07;22.00;83.30
41987;DHT22;28361;50.740;7.084;2023-06-19T00:43:34;22.00;85.70
41987;DHT22;28361;50.740;7.084;2023-06-19T00:46:00;22.10;84.10
41987;DHT22;28361;50.740;7.084;2023-06-19T00:48:28;22.10;83.90
41987;DHT22;28361;50.740;7.084;2023-06-19T00:50:56;22.10;83.60
41987;DHT22;28361;50.740;7.084;2023-06-19T00:53:22;22.00;83.70
41987;DHT22;28361;50.740;7.084;2023-06-19T00:55:48;21.90;76.50
41987;DHT22;28361;50.740;7.084;2023-06-19T00:58:17;21.90;77.70
41987;DHT22;28361;50.740;7.084;2023-06-19T01:00:43;21.80;84.70
41987;DHT22;28361;50.740;7.084;2023-06-19T01:03:09;21.80;88.50
41987;DHT22;28361;50.740;7.084;2023-06-19T01:05:34;21.80;91.30
41987;DHT22;28361;50.740;7.084;2023-06-19T01:10:55;21.70;90.30
41987;DHT22;28361;50.740;7.084;2023-06-19T01:13:29;21.70;94.00
41987;DHT22;28361;50.740;7.084;2023-06-19T01:15:58;21.80;93.70
41987;DHT22;28361;50.740;7.084;2023-06-19T01:18:24;21.90;92.80
41987;DHT22;28361;50.740;7.084;2023-06-19T01:20:52;22.00;92.40
41987;DHT22;28361;50.740;7.084;2023-06-19T01:23:17;22.00;93.80
41987;DHT22;28361;50.740;7.084;2023-06-19T01:25:43;22.00;91.90
41987;DHT22;28361;50.740;7.084;2023-06-19T01:28:10;22.00;93.40
41987;DHT22;28361;50.740;7.084;2023-06-19T01:30:40;22.10;92.70
41987;DHT22;28361;50.740;7.084;2023-06-19T01:33:16;22.10;88.70
41987;DHT22;28361;50.740;7.084;2023-06-19T01:35:46;22.10;91.00
41987;DHT22;28361;50.740;7.084;2023-06-19T01:38:12;22.10;89.00
41987;DHT22;28361;50.740;7.084;2023-06-19T01:40:40;22.10;87.00
41987;DHT22;28361;50.740;7.084;2023-06-19T01:43:07;22.10;83.40
41987;DHT22;28361;50.740;7.084;2023-06-19T01:45:33;22.10;79.80
41987;DHT22;28361;50.740;7.084;2023-06-19T01:47:59;22.20;82.20
41987;DHT22;28361;50.740;7.084;2023-06-19T01:50:25;22.20;71.90
41987;DHT22;28361;50.740;7.084;2023-06-19T01:52:51;22.10;68.10
41987;DHT22;28361;50.740;7.084;2023-06-19T01:55:17;22.20;56.30
41987;DHT22;28361;50.740;7.084;2023-06-19T01:57:43;22.20;47.80
41987;DHT22;28361;50.740;7.084;2023-06-19T02:00:11;22.20;39.40
41987;DHT22;28361;50.740;7.084;2023-06-19T02:02:37;22.30;37.50
41987;DHT22;28361;50.740;7.084;2023-06-19T02:05:03;22.30;34.80
41987;DHT22;28361;50.740;7.084;2023-06-19T02:07:28;22.30;29.60
41987;DHT22;28361;50.740;7.084;2023-06-19T02:09:54;22.30;25.70
41987;DHT22;28361;50.740;7.084;2023-06-19T02:12:20;22.30;22.00
41987;DHT22;28361;50.740;7.084;2023-06-19T02:14:45;22.30;12.90
41987;DHT22;28361;50.740;7.084;2023-06-19T02:17:11;22.30;9.50
41987;DHT22;28361;50.740;7.084;2023-06-19T02:19:36;22.30;1.90
41987;DHT22;28361;50.740;7.084;2023-06-19T02:22:02;22.30;3.60
41987;DHT22;28361;50.740;7.084;2023-06-19T02:24:28;22.30;1.00
41987;DHT22;28361;50.740;7.084;2023-06-19T02:26:53;22.30;1.00
41987;DHT22;28361;50.740;7.084;2023-06-19T02:29:19;22.40;1.00
41987;DHT22;28361;50.740;7.084;2023-06-19T02:31:45;22.40;1.00
41987;DHT22;28361;50.740;7.084;2023-06-19T02:34:11;22.40;1.00
41987;DHT22;28361;50.740;7.084;2023-06-19T02:36:37;22.40;1.00
41987;DHT22;28361;50.740;7.084;2023-06-19T02:39:04;22.30;1.00
41987;DHT22;28361;50.740;7.084;2023-06-19T02:41:31;22.30;1.00
41987;DHT22;28361;50.740;7.084;2023-06-19T02:43:57;22.30;1.00
41987;DHT22;28361;50.740;7.084;2023-06-19T02:46:23;22.20;1.00
41987;DHT22;28361;50.740;7.084;2023-06-19T02:48:48;22.10;1.00
41987;DHT22;28361;50.740;7.084;2023-06-19T02:51:14;22.20;1.00
41987;DHT22;28361;50.740;7.084;2023-06-19T02:53:39;22.10;1.00
41987;DHT22;28361;50.740;7.084;2023-06-19T02:56:07;22.10;1.00
41987;DHT22;28361;50.740;7.084;2023-06-19T02:58:33;22.10;1.00
41987;DHT22;28361;50.740;7.084;2023-06-19T03:01:00;22.10;1.00
41987;DHT22;28361;50.740;7.084;2023-06-19T03:03:25;22.10;1.00
41987;DHT22;28361;50.740;7.084;2023-06-19T03:05:51;22.10;1.00
41987;DHT22;28361;50.740;7.084;2023-06-19T03:08:17;22.20;1.00
41987;DHT22;28361;50.740;7.084;2023-06-19T03:10:43;22.10;1.00
41987;DHT22;28361;50.740;7.084;2023-06-19T03:13:08;22.00;1.00
41987;DHT22;28361;50.740;7.084;2023-06-19T03:15:34;22.10;1.00
41987;DHT22;28361;50.740;7.084;2023-06-19T03:17:59;22.00;1.00
41987;DHT22;28361;50.740;7.084;2023-06-19T03:20:28;22.00;1.00
41987;DHT22;28361;50.740;7.084;2023-06-19T03:22:54;22.10;1.00
41987;DHT22;28361;50.740;7.084;2023-06-19T03:25:19;22.10;1.00
41987;DHT22;28361;50.740;7.084;2023-06-19T03:27:45;22.10;1.00
41987;DHT22;28361;50.740;7.084;2023-06-19T03:30:11;22.10;1.00
41987;DHT22;28361;50.740;7.084;2023-06-19T03:32:38;22.00;1.00
41987;DHT22;28361;50.740;7.084;2023-06-19T03:35:04;22.10;1.00
41987;DHT22;28361;50.740;7.084;2023-06-19T03:37:30;22.00;1.00
41987;DHT22;28361;50.740;7.084;2023-06-19T03:39:58;22.00;1.00
41987;DHT22;28361;50.740;7.084;2023-06-19T03:42:23;22.00;1.00
41987;DHT22;28361;50.740;7.084;2023-06-19T03:44:49;22.00;1.00
41987;DHT22;28361;50.740;7.084;2023-06-19T03:47:15;22.00;1.00
41987;DHT22;28361;50.740;7.084;2023-06-19T03:49:41;22.00;1.00
41987;DHT22;28361;50.740;7.084;2023-06-19T03:52:07;22.00;1.00
41987;DHT22;28361;50.740;7.084;2023-06-19T03:54:33;21.90;1.00
41987;DHT22;28361;50.740;7.084;2023-06-19T03:56:59;21.90;1.00
41987;DHT22;28361;50.740;7.084;2023-06-19T03:59:24;21.90;1.00
41987;DHT22;28361;50.740;7.084;2023-06-19T04:01:50;21.90;1.00
41987;DHT22;28361;50.740;7.084;2023-06-19T04:04:15;22.00;1.00
41987;DHT22;28361;50.740;7.084;2023-06-19T04:06:41;22.00;1.00
41987;DHT22;28361;50.740;7.084;2023-06-19T04:09:07;22.00;1.00
41987;DHT22;28361;50.740;7.084;2023-06-19T04:11:32;22.00;1.00
41987;DHT22;28361;50.740;7.084;2023-06-19T04:13:58;21.90;1.00
41987;DHT22;28361;50.740;7.084;2023-06-19T04:16:24;21.90;1.00
41987;DHT22;28361;50.740;7.084;2023-06-19T04:18:49;21.90;1.00
41987;DHT22;28361;50.740;7.084;2023-06-19T04:21:15;21.90;1.00
41987;DHT22;28361;50.740;7.084;2023-06-19T04:23:41;21.80;1.00
41987;DHT22;28361;50.740;7.084;2023-06-19T04:26:07;21.90;1.00
41987;DHT22;28361;50.740;7.084;2023-06-19T04:28:32;21.90;1.00
41987;DHT22;28361;50.740;7.084;2023-06-19T04:30:58;21.80;1.00
41987;DHT22;28361;50.740;7.084;2023-06-19T04:33:28;21.80;1.00
41987;DHT22;28361;50.740;7.084;2023-06-19T04:35:55;21.80;1.00
41987;DHT22;28361;50.740;7.084;2023-06-19T04:38:20;21.80;1.00
41987;DHT22;28361;50.740;7.084;2023-06-19T04:40:52;21.80;1.00
41987;DHT22;28361;50.740;7.084;2023-06-19T04:43:18;21.80;1.00
41987;DHT22;28361;50.740;7.084;2023-06-19T04:45:44;21.70;1.00
41987;DHT22;28361;50.740;7.084;2023-06-19T04:48:10;21.70;1.00
41987;DHT22;28361;50.740;7.084;2023-06-19T04:50:36;21.70;1.00
41987;DHT22;28361;50.740;7.084;2023-06-19T04:53:02;21.70;1.00
41987;DHT22;28361;50.740;7.084;2023-06-19T04:55:28;21.80;1.00
41987;DHT22;28361;50.740;7.084;2023-06-19T04:57:53;21.90;1.00
41987;DHT22;28361;50.740;7.084;2023-06-19T05:00:20;21.90;1.00
41987;DHT22;28361;50.740;7.084;2023-06-19T05:02:49;21.80;1.00
41987;DHT22;28361;50.740;7.084;2023-06-19T05:05:15;21.80;1.00
41987;DHT22;28361;50.740;7.084;2023-06-19T05:07:41;21.70;1.00
41987;DHT22;28361;50.740;7.084;2023-06-19T05:10:07;21.80;1.00
41987;DHT22;28361;50.740;7.084;2023-06-19T05:12:34;21.70;1.00
41987;DHT22;28361;50.740;7.084;2023-06-19T05:15:00;21.80;1.00
41987;DHT22;28361;50.740;7.084;2023-06-19T05:17:25;21.70;1.00
41987;DHT22;28361;50.740;7.084;2023-06-19T05:19:51;21.80;1.00
41987;DHT22;28361;50.740;7.084;2023-06-19T05:22:17;21.90;1.00
41987;DHT22;28361;50.740;7.084;2023-06-19T05:24:44;21.90;1.00
41987;DHT22;28361;50.740;7.084;2023-06-19T05:27:10;22.00;1.00
41987;DHT22;28361;50.740;7.084;2023-06-19T05:29:35;22.00;1.00
41987;DHT22;28361;50.740;7.084;2023-06-19T05:32:01;22.00;1.00
41987;DHT22;28361;50.740;7.084;2023-06-19T05:34:27;21.90;1.00
41987;DHT22;28361;50.740;7.084;2023-06-19T05:36:53;21.90;1.00
41987;DHT22;28361;50.740;7.084;2023-06-19T05:39:18;22.00;1.00
41987;DHT22;28361;50.740;7.084;2023-06-19T05:41:44;22.10;1.00
41987;DHT22;28361;50.740;7.084;2023-06-19T05:44:11;22.20;1.00
41987;DHT22;28361;50.740;7.084;2023-06-19T05:46:41;22.40;1.00
41987;DHT22;28361;50.740;7.084;2023-06-19T05:49:07;22.40;1.00
41987;DHT22;28361;50.740;7.084;2023-06-19T05:51:32;22.30;1.00
41987;DHT22;28361;50.740;7.084;2023-06-19T05:53:58;22.30;1.00
41987;DHT22;28361;50.740;7.084;2023-06-19T05:56:32;22.40;1.00
41987;DHT22;28361;50.740;7.084;2023-06-19T05:58:59;22.50;1.00
41987;DHT22;28361;50.740;7.084;2023-06-19T06:01:25;22.70;1.00
41987;DHT22;28361;50.740;7.084;2023-06-19T06:03:54;22.80;1.00
41987;DHT22;28361;50.740;7.084;2023-06-19T06:06:19;22.70;1.00
41987;DHT22;28361;50.740;7.084;2023-06-19T06:08:45;22.80;1.00
41987;DHT22;28361;50.740;7.084;2023-06-19T06:11:11;23.00;1.00
41987;DHT22;28361;50.740;7.084;2023-06-19T06:13:36;23.10;1.00
41987;DHT22;28361;50.740;7.084;2023-06-19T06:16:02;23.00;1.00
41987;DHT22;28361;50.740;7.084;2023-06-19T06:18:28;23.00;1.00
41987;DHT22;28361;50.740;7.084;2023-06-19T06:20:53;22.90;1.00
41987;DHT22;28361;50.740;7.084;2023-06-19T06:23:19;23.00;1.00
41987;DHT22;28361;50.740;7.084;2023-06-19T06:25:44;22.80;1.00
41987;DHT22;28361;50.740;7.084;2023-06-19T06:28:11;22.80;1.00
41987;DHT22;28361;50.740;7.084;2023-06-19T06:30:37;22.80;1.00
41987;DHT22;28361;50.740;7.084;2023-06-19T06:33:04;22.90;1.00
41987;DHT22;28361;50.740;7.084;2023-06-19T06:35:30;23.00;1.00
41987;DHT22;28361;50.740;7.084;2023-06-19T06:37:55;23.10;1.00
41987;DHT22;28361;50.740;7.084;2023-06-19T06:40:21;23.30;1.00
41987;DHT22;28361;50.740;7.084;2023-06-19T06:42:47;23.30;1.00
41987;DHT22;28361;50.740;7.084;2023-06-19T06:45:13;23.20;1.00
41987;DHT22;28361;50.740;7.084;2023-06-19T06:47:39;23.30;1.00
41987;DHT22;28361;50.740;7.084;2023-06-19T06:50:06;23.30;1.00
41987;DHT22;28361;50.740;7.084;2023-06-19T06:52:32;23.40;1.00
41987;DHT22;28361;50.740;7.084;2023-06-19T06:54:58;23.30;1.00
41987;DHT22;28361;50.740;7.084;2023-06-19T06:57:24;23.30;1.00
41987;DHT22;28361;50.740;7.084;2023-06-19T06:59:50;23.40;1.00
41987;DHT22;28361;50.740;7.084;2023-06-19T07:02:16;23.50;1.00
41987;DHT22;28361;50.740;7.084;2023-06-19T07:04:41;23.60;1.00
41987;DHT22;28361;50.740;7.084;2023-06-19T07:07:07;23.70;1.00
41987;DHT22;28361;50.740;7.084;2023-06-19T07:09:34;24.10;1.00
41987;DHT22;28361;50.740;7.084;2023-06-19T07:11:59;24.20;1.00
41987;DHT22;28361;50.740;7.084;2023-06-19T07:14:27;24.20;1.00
41987;DHT22;28361;50.740;7.084;2023-06-19T07:16:53;24.30;1.00
41987;DHT22;28361;50.740;7.084;2023-06-19T07:19:18;24.40;1.00
41987;DHT22;28361;50.740;7.084;2023-06-19T07:21:44;24.70;1.00
41987;DHT22;28361;50.740;7.084;2023-06-19T07:24:10;24.70;1.00
41987;DHT22;28361;50.740;7.084;2023-06-19T07:26:35;24.90;1.00
41987;DHT22;28361;50.740;7.084;2023-06-19T07:29:01;24.60;1.00
41987;DHT22;28361;50.740;7.084;2023-06-19T07:31:27;24.80;1.00
41987;DHT22;28361;50.740;7.084;2023-06-19T07:33:52;24.60;1.00
41987;DHT22;28361;50.740;7.084;2023-06-19T07:36:18;24.10;1.00
41987;DHT22;28361;50.740;7.084;2023-06-19T07:38:43;23.80;1.00
41987;DHT22;28361;50.740;7.084;2023-06-19T07:41:09;23.90;1.00
41987;DHT22;28361;50.740;7.084;2023-06-19T07:43:39;24.30;1.00
41987;DHT22;28361;50.740;7.084;2023-06-19T07:46:05;24.50;1.00
41987;DHT22;28361;50.740;7.084;2023-06-19T07:48:30;24.80;1.00
41987;DHT22;28361;50.740;7.084;2023-06-19T07:50:56;24.70;1.00
41987;DHT22;28361;50.740;7.084;2023-06-19T07:53:22;24.00;1.00
41987;DHT22;28361;50.740;7.084;2023-06-19T07:55:47;24.00;1.00
41987;DHT22;28361;50.740;7.084;2023-06-19T07:58:13;24.30;1.00
41987;DHT22;28361;50.740;7.084;2023-06-19T08:00:39;24.10;1.00
41987;DHT22;28361;50.740;7.084;2023-06-19T08:03:05;24.40;1.00
41987;DHT22;28361;50.740;7.084;2023-06-19T08:05:30;24.30;1.00
41987;DHT22;28361;50.740;7.084;2023-06-19T08:07:56;24.30;1.00
41987;DHT22;28361;50.740;7.084;2023-06-19T08:10:23;24.10;1.00
41987;DHT22;28361;50.740;7.084;2023-06-19T08:12:49;23.80;1.00
41987;DHT22;28361;50.740;7.084;2023-06-19T08:15:15;23.90;1.00
41987;DHT22;28361;50.740;7.084;2023-06-19T08:17:41;24.30;1.00
41987;DHT22;28361;50.740;7.084;2023-06-19T08:20:08;24.90;1.00
41987;DHT22;28361;50.740;7.084;2023-06-19T08:22:35;25.30;1.00
41987;DHT22;28361;50.740;7.084;2023-06-19T08:25:01;25.80;1.00
41987;DHT22;28361;50.740;7.084;2023-06-19T08:27:27;25.50;1.00
41987;DHT22;28361;50.740;7.084;2023-06-19T08:29:52;24.40;1.00
41987;DHT22;28361;50.740;7.084;2023-06-19T08:32:18;24.20;1.00
41987;DHT22;28361;50.740;7.084;2023-06-19T08:34:44;24.00;1.00
41987;DHT22;28361;50.740;7.084;2023-06-19T08:37:10;24.50;1.00
41987;DHT22;28361;50.740;7.084;2023-06-19T08:39:35;25.00;1.00
41987;DHT22;28361;50.740;7.084;2023-06-19T08:42:05;25.80;1.00
41987;DHT22;28361;50.740;7.084;2023-06-19T08:44:33;25.80;1.00
41987;DHT22;28361;50.740;7.084;2023-06-19T08:46:59;25.60;1.00
41987;DHT22;28361;50.740;7.084;2023-06-19T08:49:25;25.60;1.00
41987;DHT22;28361;50.740;7.084;2023-06-19T08:51:50;26.30;1.00
41987;DHT22;28361;50.740;7.084;2023-06-19T08:54:17;26.60;1.00
41987;DHT22;28361;50.740;7.084;2023-06-19T08:56:43;26.80;1.00
41987;DHT22;28361;50.740;7.084;2023-06-19T08:59:14;25.90;1.00
41987;DHT22;28361;50.740;7.084;2023-06-19T09:01:40;25.90;1.00
41987;DHT22;28361;50.740;7.084;2023-06-19T09:04:10;26.20;1.00
41987;DHT22;28361;50.740;7.084;2023-06-19T09:06:45;26.30;1.00
41987;DHT22;28361;50.740;7.084;2023-06-19T09:09:14;26.20;1.00
41987;DHT22;28361;50.740;7.084;2023-06-19T09:11:40;26.70;1.00
41987;DHT22;28361;50.740;7.084;2023-06-19T09:14:11;26.50;1.00
41987;DHT22;28361;50.740;7.084;2023-06-19T09:16:41;25.80;1.00
41987;DHT22;28361;50.740;7.084;2023-06-19T09:19:07;25.80;1.00
41987;DHT22;28361;50.740;7.084;2023-06-19T09:21:36;26.10;1.00
41987;DHT22;28361;50.740;7.084;2023-06-19T09:24:06;25.20;1.00
41987;DHT22;28361;50.740;7.084;2023-06-19T09:26:33;24.70;1.00
41987;DHT22;28361;50.740;7.084;2023-06-19T09:29:13;24.90;1.00
41987;DHT22;28361;50.740;7.084;2023-06-19T09:31:38;25.40;1.00
41987;DHT22;28361;50.740;7.084;2023-06-19T09:34:07;25.80;1.00
41987;DHT22;28361;50.740;7.084;2023-06-19T09:36:32;26.30;1.00
41987;DHT22;28361;50.740;7.084;2023-06-19T09:39:01;27.10;1.00
41987;DHT22;28361;50.740;7.084;2023-06-19T09:41:29;26.90;1.00
41987;DHT22;28361;50.740;7.084;2023-06-19T09:43:55;26.60;1.00
41987;DHT22;28361;50.740;7.084;2023-06-19T09:46:26;27.00;1.00
41987;DHT22;28361;50.740;7.084;2023-06-19T09:48:54;27.50;1.00
41987;DHT22;28361;50.740;7.084;2023-06-19T09:51:30;27.40;1.00
41987;DHT22;28361;50.740;7.084;2023-06-19T09:53:57;27.70;1.00
41987;DHT22;28361;50.740;7.084;2023-06-19T09:56:24;27.60;1.00
41987;DHT22;28361;50.740;7.084;2023-06-19T09:58:53;27.80;1.00
41987;DHT22;28361;50.740;7.084;2023-06-19T10:01:20;28.10;1.00
41987;DHT22;28361;50.740;7.084;2023-06-19T10:03:46;28.30;1.00
41987;DHT22;28361;50.740;7.084;2023-06-19T10:06:16;28.70;1.00
41987;DHT22;28361;50.740;7.084;2023-06-19T10:08:44;28.70;1.00
41987;DHT22;28361;50.740;7.084;2023-06-19T10:11:12;28.20;1.00
41987;DHT22;28361;50.740;7.084;2023-06-19T10:13:40;27.20;1.00
41987;DHT22;28361;50.740;7.084;2023-06-19T10:16:07;27.90;1.00
41987;DHT22;28361;50.740;7.084;2023-06-19T10:18:47;28.40;1.00
41987;DHT22;28361;50.740;7.084;2023-06-19T10:21:17;28.00;1.00
41987;DHT22;28361;50.740;7.084;2023-06-19T10:23:43;28.70;1.00
41987;DHT22;28361;50.740;7.084;2023-06-19T10:26:18;27.20;1.00
41987;DHT22;28361;50.740;7.084;2023-06-19T10:28:46;27.70;1.00
41987;DHT22;28361;50.740;7.084;2023-06-19T10:31:13;28.70;1.00
41987;DHT22;28361;50.740;7.084;2023-06-19T10:33:38;29.50;1.00
41987;DHT22;28361;50.740;7.084;2023-06-19T10:36:22;28.80;1.00
41987;DHT22;28361;50.740;7.084;2023-06-19T10:38:49;29.50;1.00
41987;DHT22;28361;50.740;7.084;2023-06-19T10:41:16;29.80;1.00
41987;DHT22;28361;50.740;7.084;2023-06-19T10:43:41;29.50;1.00
41987;DHT22;28361;50.740;7.084;2023-06-19T10:46:07;28.80;1.00
41987;DHT22;28361;50.740;7.084;2023-06-19T10:48:32;29.10;1.00
41987;DHT22;28361;50.740;7.084;2023-06-19T10:50:59;29.80;1.00
41987;DHT22;28361;50.740;7.084;2023-06-19T10:53:32;29.10;1.00
41987;DHT22;28361;50.740;7.084;2023-06-19T10:56:02;28.70;1.00
41987;DHT22;28361;50.740;7.084;2023-06-19T10:58:29;28.30;1.00
41987;DHT22;28361;50.740;7.084;2023-06-19T11:00:55;28.80;1.00
41987;DHT22;28361;50.740;7.084;2023-06-19T11:03:21;29.30;1.00
41987;DHT22;28361;50.740;7.084;2023-06-19T11:05:48;29.70;1.00
41987;DHT22;28361;50.740;7.084;2023-06-19T11:08:18;29.20;1.00
41987;DHT22;28361;50.740;7.084;2023-06-19T11:10:44;30.10;1.00
41987;DHT22;28361;50.740;7.084;2023-06-19T11:13:14;30.30;1.00
41987;DHT22;28361;50.740;7.084;2023-06-19T11:15:41;29.60;1.00
41987;DHT22;28361;50.740;7.084;2023-06-19T11:18:07;30.20;1.00
41987;DHT22;28361;50.740;7.084;2023-06-19T11:20:49;30.60;1.00
41987;DHT22;28361;50.740;7.084;2023-06-19T11:23:16;31.00;1.00
41987;DHT22;28361;50.740;7.084;2023-06-19T11:25:43;31.70;1.00
41987;DHT22;28361;50.740;7.084;2023-06-19T11:28:16;31.40;1.00
41987;DHT22;28361;50.740;7.084;2023-06-19T11:30:48;31.40;1.00
41987;DHT22;28361;50.740;7.084;2023-06-19T11:33:21;30.50;1.00
41987;DHT22;28361;50.740;7.084;2023-06-19T11:35:51;30.30;1.00
41987;DHT22;28361;50.740;7.084;2023-06-19T11:38:21;30.40;1.00
41987;DHT22;28361;50.740;7.084;2023-06-19T11:40:47;30.60;1.00
41987;DHT22;28361;50.740;7.084;2023-06-19T11:43:27;30.90;1.00
41987;DHT22;28361;50.740;7.084;2023-06-19T11:45:54;31.60;1.00
41987;DHT22;28361;50.740;7.084;2023-06-19T11:48:25;32.50;1.00
41987;DHT22;28361;50.740;7.084;2023-06-19T11:50:51;32.10;1.00
41987;DHT22;28361;50.740;7.084;2023-06-19T11:53:19;31.40;1.00
41987;DHT22;28361;50.740;7.084;2023-06-19T11:55:45;31.10;1.00
41987;DHT22;28361;50.740;7.084;2023-06-19T11:58:11;30.70;1.00
41987;DHT22;28361;50.740;7.084;2023-06-19T12:00:37;30.80;1.00
41987;DHT22;28361;50.740;7.084;2023-06-19T12:03:03;30.90;1.00
41987;DHT22;28361;50.740;7.084;2023-06-19T12:05:29;31.30;1.00
41987;DHT22;28361;50.740;7.084;2023-06-19T12:07:55;31.50;1.00
41987;DHT22;28361;50.740;7.084;2023-06-19T12:10:21;30.90;1.00
41987;DHT22;28361;50.740;7.084;2023-06-19T12:12:46;30.80;1.00
41987;DHT22;28361;50.740;7.084;2023-06-19T12:15:12;31.40;1.00
41987;DHT22;28361;50.740;7.084;2023-06-19T12:17:38;32.10;1.00
41987;DHT22;28361;50.740;7.084;2023-06-19T12:20:04;32.10;1.00
41987;DHT22;28361;50.740;7.084;2023-06-19T12:22:35;31.80;1.00
41987;DHT22;28361;50.740;7.084;2023-06-19T12:25:00;32.10;1.00
41987;DHT22;28361;50.740;7.084;2023-06-19T12:27:26;31.90;1.00
41987;DHT22;28361;50.740;7.084;2023-06-19T12:29:52;32.10;1.00
41987;DHT22;28361;50.740;7.084;2023-06-19T12:32:18;31.80;1.00
41987;DHT22;28361;50.740;7.084;2023-06-19T12:34:43;32.40;1.00
41987;DHT22;28361;50.740;7.084;2023-06-19T12:37:15;31.40;1.00
41987;DHT22;28361;50.740;7.084;2023-06-19T12:39:42;30.90;1.00
41987;DHT22;28361;50.740;7.084;2023-06-19T12:42:07;30.50;1.00
41987;DHT22;28361;50.740;7.084;2023-06-19T12:44:33;30.90;1.00
41987;DHT22;28361;50.740;7.084;2023-06-19T12:46:58;30.90;1.00
41987;DHT22;28361;50.740;7.084;2023-06-19T12:49:26;31.20;1.00
41987;DHT22;28361;50.740;7.084;2023-06-19T12:51:51;31.30;1.00
41987;DHT22;28361;50.740;7.084;2023-06-19T12:54:18;32.00;1.00
41987;DHT22;28361;50.740;7.084;2023-06-19T12:56:44;31.60;1.00
41987;DHT22;28361;50.740;7.084;2023-06-19T12:59:10;31.10;1.00
41987;DHT22;28361;50.740;7.084;2023-06-19T13:01:36;30.40;1.00
41987;DHT22;28361;50.740;7.084;2023-06-19T13:04:01;31.40;1.00
41987;DHT22;28361;50.740;7.084;2023-06-19T13:06:27;32.70;1.00
41987;DHT22;28361;50.740;7.084;2023-06-19T13:08:53;32.40;1.00
41987;DHT22;28361;50.740;7.084;2023-06-19T13:11:19;31.90;1.00
41987;DHT22;28361;50.740;7.084;2023-06-19T13:13:45;31.90;1.00
41987;DHT22;28361;50.740;7.084;2023-06-19T13:16:10;31.80;1.00
41987;DHT22;28361;50.740;7.084;2023-06-19T13:18:36;32.10;1.00
41987;DHT22;28361;50.740;7.084;2023-06-19T13:21:02;32.10;1.00
41987;DHT22;28361;50.740;7.084;2023-06-19T13:23:28;32.50;1.00
41987;DHT22;28361;50.740;7.084;2023-06-19T13:25:56;32.90;1.00
41987;DHT22;28361;50.740;7.084;2023-06-19T13:28:22;32.10;1.00
41987;DHT22;28361;50.740;7.084;2023-06-19T13:30:48;32.10;1.00
41987;DHT22;28361;50.740;7.084;2023-06-19T13:33:14;32.70;1.00
41987;DHT22;28361;50.740;7.084;2023-06-19T13:35:41;32.40;1.00
41987;DHT22;28361;50.740;7.084;2023-06-19T13:38:07;32.20;1.00
41987;DHT22;28361;50.740;7.084;2023-06-19T13:40:33;32.80;1.00
41987;DHT22;28361;50.740;7.084;2023-06-19T13:42:59;32.20;1.00
41987;DHT22;28361;50.740;7.084;2023-06-19T13:45:25;31.90;1.00
41987;DHT22;28361;50.740;7.084;2023-06-19T13:47:50;31.50;1.00
41987;DHT22;28361;50.740;7.084;2023-06-19T13:50:16;32.10;1.00
41987;DHT22;28361;50.740;7.084;2023-06-19T13:52:46;32.50;1.00
41987;DHT22;28361;50.740;7.084;2023-06-19T13:55:13;33.20;1.00
41987;DHT22;28361;50.740;7.084;2023-06-19T13:57:40;33.60;1.00
41987;DHT22;28361;50.740;7.084;2023-06-19T14:00:07;33.70;1.00
41987;DHT22;28361;50.740;7.084;2023-06-19T14:02:34;33.60;1.00
41987;DHT22;28361;50.740;7.084;2023-06-19T14:05:00;33.10;1.00
41987;DHT22;28361;50.740;7.084;2023-06-19T14:07:25;33.20;1.00
41987;DHT22;28361;50.740;7.084;2023-06-19T14:09:52;33.10;1.00
41987;DHT22;28361;50.740;7.084;2023-06-19T14:12:21;33.20;1.00
41987;DHT22;28361;50.740;7.084;2023-06-19T14:14:47;33.60;1.00
41987;DHT22;28361;50.740;7.084;2023-06-19T14:17:13;33.80;1.00
41987;DHT22;28361;50.740;7.084;2023-06-19T14:19:39;34.00;1.00
41987;DHT22;28361;50.740;7.084;2023-06-19T14:22:05;33.80;1.00
41987;DHT22;28361;50.740;7.084;2023-06-19T14:24:31;34.20;1.00
41987;DHT22;28361;50.740;7.084;2023-06-19T14:26:56;33.80;1.00
41987;DHT22;28361;50.740;7.084;2023-06-19T14:29:22;33.30;1.00
41987;DHT22;28361;50.740;7.084;2023-06-19T14:31:50;33.50;1.00
41987;DHT22;28361;50.740;7.084;2023-06-19T14:34:15;33.70;1.00
41987;DHT22;28361;50.740;7.084;2023-06-19T14:36:41;34.40;1.00
41987;DHT22;28361;50.740;7.084;2023-06-19T14:39:07;35.30;1.00
41987;DHT22;28361;50.740;7.084;2023-06-19T14:41:33;35.70;1.00
41987;DHT22;28361;50.740;7.084;2023-06-19T14:43:58;35.30;1.00
41987;DHT22;28361;50.740;7.084;2023-06-19T14:46:24;35.00;1.00
41987;DHT22;28361;50.740;7.084;2023-06-19T14:48:49;35.20;1.00
41987;DHT22;28361;50.740;7.084;2023-06-19T14:51:15;35.60;1.00
41987;DHT22;28361;50.740;7.084;2023-06-19T14:53:40;35.90;1.00
41987;DHT22;28361;50.740;7.084;2023-06-19T14:56:06;36.00;1.00
41987;DHT22;28361;50.740;7.084;2023-06-19T14:58:32;35.60;1.00
41987;DHT22;28361;50.740;7.084;2023-06-19T15:00:58;35.60;1.00
41987;DHT22;28361;50.740;7.084;2023-06-19T15:03:23;36.50;1.00
41987;DHT22;28361;50.740;7.084;2023-06-19T15:05:49;36.70;1.00
41987;DHT22;28361;50.740;7.084;2023-06-19T15:08:15;36.00;1.00
41987;DHT22;28361;50.740;7.084;2023-06-19T15:10:46;36.40;1.00
41987;DHT22;28361;50.740;7.084;2023-06-19T15:13:12;35.80;1.00
41987;DHT22;28361;50.740;7.084;2023-06-19T15:15:37;34.70;1.00
41987;DHT22;28361;50.740;7.084;2023-06-19T15:18:03;34.20;1.00
41987;DHT22;28361;50.740;7.084;2023-06-19T15:20:29;34.70;1.00
41987;DHT22;28361;50.740;7.084;2023-06-19T15:22:54;34.60;1.00
41987;DHT22;28361;50.740;7.084;2023-06-19T15:25:20;33.90;1.00
41987;DHT22;28361;50.740;7.084;2023-06-19T15:27:46;33.20;1.00
41987;DHT22;28361;50.740;7.084;2023-06-19T15:30:11;33.00;1.00
41987;DHT22;28361;50.740;7.084;2023-06-19T15:32:37;32.90;1.00
41987;DHT22;28361;50.740;7.084;2023-06-19T15:35:03;32.80;1.00
41987;DHT22;28361;50.740;7.084;2023-06-19T15:37:29;33.30;1.00
41987;DHT22;28361;50.740;7.084;2023-06-19T15:39:54;34.40;1.00
41987;DHT22;28361;50.740;7.084;2023-06-19T15:42:21;35.40;1.00
41987;DHT22;28361;50.740;7.084;2023-06-19T15:44:47;35.90;1.00